TimeEDT,TemperatureF,Dew PointF,Humidity,Sea Level PressureIn,VisibilityMPH,Wind Direction,Wind SpeedMPH,Gust SpeedMPH,PrecipitationIn,Events,Conditions,WindDirDegrees,DateUTC
12:54 AM,46.0,41.0,83,30.21,10.0,SW,5.8,-,N/A,,Clear,230,2013-09-15 04:54:00
1:54 AM,46.0,41.0,83,30.20,10.0,SW,4.6,-,N/A,,Clear,220,2013-09-15 05:54:00
2:54 AM,44.1,39.9,85,30.18,10.0,SSW,3.5,-,N/A,,Clear,200,2013-09-15 06:54:00
3:54 AM,45.0,41.0,86,30.18,10.0,SSW,4.6,-,N/A,,Clear,200,2013-09-15 07:54:00
4:54 AM,45.0,41.0,86,30.18,10.0,Calm,Calm,-,N/A,,Clear,0,2013-09-15 08:54:00
5:54 AM,41.0,39.0,93,30.20,10.0,WSW,5.8,-,N/A,,Clear,250,2013-09-15 09:54:00
6:54 AM,44.1,39.9,85,30.21,10.0,Calm,Calm,-,N/A,,Clear,0,2013-09-15 10:54:00
7:54 AM,46.0,43.0,89,30.23,10.0,Calm,Calm,-,N/A,,Clear,0,2013-09-15 11:54:00
8:54 AM,48.9,44.1,83,30.22,10.0,West,3.5,-,N/A,,Clear,260,2013-09-15 12:54:00
9:54 AM,53.1,45.0,74,30.23,10.0,South,4.6,-,N/A,,Clear,180,2013-09-15 13:54:00
10:54 AM,55.9,45.0,67,30.22,10.0,South,5.8,-,N/A,,Clear,190,2013-09-15 14:54:00
11:54 AM,59.0,46.0,62,30.20,10.0,Variable,3.5,-,N/A,,Clear,0,2013-09-15 15:54:00
12:54 PM,62.1,48.0,60,30.19,10.0,WSW,6.9,-,N/A,,Clear,240,2013-09-15 16:54:00
1:54 PM,64.9,50.0,58,30.16,10.0,SW,11.5,-,N/A,,Clear,230,2013-09-15 17:54:00
2:54 PM,64.9,50.0,58,30.15,10.0,SSW,8.1,-,N/A,,Clear,200,2013-09-15 18:54:00
3:54 PM,66.0,48.9,54,30.13,10.0,SW,6.9,-,N/A,,Clear,220,2013-09-15 19:54:00
4:54 PM,64.9,50.0,58,30.13,10.0,West,9.2,-,N/A,,Scattered Clouds,260,2013-09-15 20:54:00
5:54 PM,63.0,51.1,65,30.13,10.0,WSW,5.8,-,N/A,,Clear,250,2013-09-15 21:54:00
6:54 PM,61.0,52.0,72,30.12,10.0,WSW,3.5,-,N/A,,Clear,250,2013-09-15 22:54:00
7:54 PM,59.0,52.0,78,30.13,10.0,WSW,6.9,-,N/A,,Clear,250,2013-09-15 23:54:00
8:54 PM,57.9,51.1,78,30.13,10.0,SW,5.8,-,N/A,,Clear,230,2013-09-16 00:54:00
9:54 PM,57.0,51.1,81,30.13,10.0,WSW,5.8,-,N/A,,Clear,250,2013-09-16 01:54:00
10:54 PM,57.0,51.1,81,30.11,10.0,WSW,5.8,-,N/A,,Partly Cloudy,250,2013-09-16 02:54:00
11:54 PM,57.9,51.1,78,30.10,10.0,West,5.8,-,N/A,,Scattered Clouds,260,2013-09-16 03:54:00